This is the latest recevied weather packets stored in our database for station/object SR5NLK-1. If no packets are shown the sender has not sent any weather packets the latest 1 day(s).
| Time | Temp. | Humidity | Pressure | Rain* | Wind** | Luminosity | Snow |
|---|---|---|---|---|---|---|---|
| 1778010452 | 20° C | 52% | 997.9 hPa | 0 mm | 3.58 m/s, 0° | - | - |
| 1778010152 | 20° C | 50% | 1039.7 hPa | 0 mm | 3.58 m/s, 22° | - | - |
| 1778009852 | 20.56° C | 49% | 997.9 hPa | 0 mm | 2.68 m/s, 22° | - | - |
| 1778009552 | 20.56° C | 47% | 920.5 hPa | 0 mm | 2.24 m/s, 22° | - | - |
| 1778009252 | 20.56° C | 45% | 1090.9 hPa | 0 mm | 2.24 m/s, 0° | - | - |
| 1778008952 | 20.56° C | 42% | 1055.4 hPa | 0 mm | 2.68 m/s, 0° | - | - |
| 1778008891 | 20.56° C | 41% | 1055.4 hPa | 0 mm | 1.79 m/s, 0° | - | - |
| 1778008652 | 20.56° C | 40% | 1081.5 hPa | 0 mm | 0.89 m/s, 22° | - | - |
| 1778008352 | 20.56° C | 36% | 1004.1 hPa | 0 mm | 1.79 m/s, 315° | - | - |
| 1778008052 | 21.11° C | 34% | 920.5 hPa | 0 mm | 0 m/s | - | - |
| 1778007752 | 21.11° C | 34% | 1045.9 hPa | 0 mm | 0 m/s | - | - |
| 1778007452 | 21.11° C | 33% | 1010.4 hPa | 0 mm | 0.89 m/s, 337° | - | - |
| 1778007152 | 21.11° C | 32% | 974.7 hPa | 0 mm | 1.34 m/s, 315° | - | - |
| 1778006911 | 21.67° C | 31% | 1039.7 hPa | 0 mm | 0 m/s | - | - |
| 1778006852 | 21.67° C | 31% | 974.8 hPa | 0 mm | 0 m/s | - | - |
| 1778006559 | 21.67° C | 31% | 1097.2 hPa | 0 mm | 0.45 m/s, 135° | - | - |
| 1778006552 | 21.67° C | 31% | 1097.2 hPa | 0 mm | 0.45 m/s, 135° | - | - |
| 1778006252 | 21.67° C | 30% | 1097.2 hPa | 0 mm | 0 m/s | - | - |
| 1778005952 | 22.22° C | 30% | 1100.3 hPa | 0 mm | 0 m/s | - | - |
| 1778005652 | 22.22° C | 29% | 1060.2 hPa | 0 mm | 0.45 m/s, 135° | - | - |
| 1778005352 | 22.78° C | 29% | 1039.7 hPa | 0 mm | 0.45 m/s, 180° | - | - |
| 1778005052 | 22.78° C | 29% | 1019.7 hPa | 0 mm | 0.45 m/s, 157° | - | - |
| 1778004931 | 22.78° C | 28% | 1058.5 hPa | 0 mm | 1.34 m/s, 135° | - | - |
| 1778004752 | 23.33° C | 28% | 1094.1 hPa | 0 mm | 0.45 m/s, 135° | - | - |
| 1778004452 | 23.89° C | 28% | 1042.8 hPa | 0 mm | 0.89 m/s, 157° | - | - |
* Rain latest hour (hover to see other rain measurements)
** Current wind speed in m/s (hover to see current wind gust speed)